Latest Weather Observations for Kingaroy

IDQ60901

Issued at 1:21 pm EST Sunday 26 March 2017 (issued every 10 minutes, with the page automatically refreshed every 10 minutes)

About weather observations | Map of Brisbane area stations | Latest observations for Brisbane area | Other Formats
Station Details ID: 040922 Name: KINGAROY AIRPORT Lat: -26.57 Lon: 151.84 Height: 433.67 m
Data from the previous 72 hours. | See also: Recent months at Kingaroy
Date/Time
EST
Temp
°C
App
Temp
°C
Dew
Point
°C
Rel
Hum
%
Delta-T
°C
Wind Press
QNH
hPa
Press
MSL
hPa
Rain since
9am
mm
Dir  Spd
km/h
Gust
km/h
Spd
kts
Gust
kts
26/01:00pm 29.6 28.5 16.4 45 8.4 SE 17 24 9 13 1014.9 1012.8 0.0
26/12:30pm 28.5 28.9 16.4 48 7.6 SE 9 13 5 7 1015.4 1013.3 0.0
26/12:00pm 28.6 28.6 16.2 47 7.8 ESE 11 17 6 9 1015.8 1013.7 0.0
26/11:30am 27.7 28.6 17.5 53 6.5 NE 9 15 5 8 1016.2 1014.1 0.0
26/11:00am 27.2 28.6 17.9 56 6.0 ENE 7 13 4 7 1016.8 1014.7 0.0
26/10:30am 26.3 27.6 18.4 61 5.1 E 9 15 5 8 1017.2 1015.1 0.0
26/10:00am 24.7 25.8 17.9 66 4.3 E 9 15 5 8 1017.6 1015.5 0.0
26/09:30am 23.9 24.8 18.5 72 3.5 SE 11 17 6 9 1017.8 1015.7 0.0
26/09:00am 23.3 24.6 18.4 74 3.1 SE 9 13 5 7 1017.7 1015.6 0.0
26/08:30am 22.6 23.4 19.0 80 2.3 SE 13 19 7 10 1017.6 1015.5 0.0
26/08:00am 21.4 22.5 18.8 85 1.7 SE 11 15 6 8 1017.4 1015.3 0.0
26/07:30am 20.4 20.1 18.3 88 1.3 S 17 20 9 11 1017.3 1015.2 0.0
26/07:00am 19.8 21.3 18.1 90 1.1 SE 7 11 4 6 1016.8 1014.7 0.0
26/06:56am 19.7 21.4 18.0 90 1.1 ESE 6 11 3 6 1016.8 1014.7 0.0
26/06:30am 19.1 20.2 17.9 93 0.8 ESE 9 11 5 6 1016.7 1014.5 0.0
26/06:00am 19.0 20.6 18.3 96 0.4 SE 7 11 4 6 1016.6 1014.4 0.0
26/05:30am 18.6 21.5 18.1 97 0.3 CALM 0 6 0 3 1016.2 1014.1 0.0
26/05:00am 17.9 19.8 17.6 98 0.2 ESE 4 9 2 5 1016.1 1014.0 0.0
26/04:36am 17.4 19.4 16.9 97 0.3 SSE 2 6 1 3 1015.8 1013.7 0.0
26/04:30am 17.2 19.5 16.7 97 0.3 CALM 0 0 0 0 1015.8 1013.7 0.0
26/04:00am 16.9 17.9 16.3 96 0.4 S 6 7 3 4 1015.5 1013.4 0.0
26/03:58am 17.0 18.0 16.4 96 0.4 SSE 6 7 3 4 1015.5 1013.4 0.0
26/03:53am 16.8 18.5 16.2 96 0.4 SE 2 7 1 4 1015.5 1013.4 0.0
26/03:30am 17.2 17.7 16.6 96 0.4 SE 9 15 5 8 1015.5 1013.4 0.0
26/03:00am 17.6 18.9 17.0 96 0.4 SE 6 9 3 5 1015.5 1013.4 0.0
26/02:30am 17.2 18.2 16.4 95 0.5 SE 6 7 3 4 1015.6 1013.5 0.0
26/02:00am 17.4 18.5 16.6 95 0.5 SE 6 9 3 5 1015.8 1013.7 0.0
26/01:30am 18.1 19.0 17.5 96 0.4 SE 9 11 5 6 1016.1 1014.0 0.0
26/01:00am 17.6 18.9 17.0 96 0.4 SE 6 7 3 4 1016.7 1014.5 0.0
26/12:30am 17.9 20.3 16.9 94 0.6 CALM 0 0 0 0 1017.1 1015.0 0.0
26/12:00am 18.0 19.3 17.0 94 0.6 SSE 6 9 3 5 1017.2 1015.1 0.0
 
Date/Time
EST
Temp
°C
App
Temp
°C
Dew
Point
°C
Rel
Hum
%
Delta-T
°C
Wind Press
QNH
hPa
Press
MSL
hPa
Rain since
9am
mm
Dir  Spd
km/h
Gust
km/h
Spd
kts
Gust
kts
25/11:30pm 18.6 21.2 17.6 94 0.6 CALM 0 0 0 0 1017.4 1015.3 0.0
25/11:00pm 18.6 21.1 17.3 92 0.8 CALM 0 6 0 3 1017.8 1015.7 0.0
25/10:30pm 18.7 19.8 17.0 90 1.0 SSE 7 9 4 5 1018.0 1015.9 0.0
25/10:00pm 19.3 20.7 17.8 91 0.9 SSE 7 9 4 5 1018.0 1015.9 0.0
25/09:30pm 19.8 21.2 17.9 89 1.2 ESE 7 11 4 6 1018.1 1016.0 0.0
25/09:00pm 20.1 21.2 18.1 88 1.3 E 9 11 5 6 1017.8 1015.7 0.0
25/08:30pm 19.9 21.3 17.7 87 1.4 E 7 11 4 6 1017.6 1015.5 0.0
25/08:00pm 20.0 20.9 17.6 86 1.5 E 9 9 5 5 1017.4 1015.3 0.0
25/07:30pm 20.8 21.8 17.8 83 1.9 E 9 13 5 7 1017.0 1014.9 0.0
25/07:00pm 21.5 22.6 17.9 80 2.3 E 9 11 5 6 1016.6 1014.4 0.0
25/06:30pm 22.5 23.4 17.6 74 3.1 ESE 9 13 5 7 1016.2 1014.1 0.0
25/06:00pm 23.3 24.2 17.5 70 3.7 ESE 9 11 5 6 1015.8 1013.7 0.0
25/05:30pm 24.7 25.3 17.7 65 4.5 ESE 11 17 6 9 1015.7 1013.6 0.0
25/05:00pm 25.4 25.8 18.1 64 4.7 SE 13 19 7 10 1015.4 1013.3 0.0
25/04:30pm 25.7 25.8 18.4 64 4.7 E 15 20 8 11 1015.2 1013.1 0.0
25/04:00pm 25.4 25.5 18.3 65 4.6 ESE 15 22 8 12 1015.1 1013.0 0.0
25/03:30pm 26.1 26.2 19.2 65 4.5 ESE 17 20 9 11 1015.2 1013.1 0.0
25/03:00pm 25.5 25.3 18.4 65 4.6 ESE 17 26 9 14 1015.4 1013.3 0.0
25/02:30pm 25.2 26.1 19.3 70 3.9 ESE 13 19 7 10 1015.5 1013.4 0.0
25/02:00pm 24.2 24.7 18.4 70 3.7 ESE 13 19 7 10 1015.8 1013.7 0.0
25/01:30pm 24.3 24.7 18.9 72 3.5 ESE 15 24 8 13 1016.2 1014.1 0.0
25/01:00pm 23.8 23.9 18.4 72 3.5 SE 15 20 8 11 1016.6 1014.4 0.0
25/12:30pm 23.6 23.2 18.0 71 3.6 SE 17 22 9 12 1016.9 1014.8 0.0
25/12:00pm 24.2 24.6 19.1 73 3.3 SE 15 22 8 12 1017.3 1015.2 0.0
25/11:30am 23.2 22.3 18.3 74 3.1 ESE 20 28 11 15 1017.7 1015.6 0.0
25/11:23am 23.3 22.6 18.6 75 3.0 ESE 20 28 11 15 1017.8 1015.7 0.0
25/11:00am 23.0 22.9 18.7 77 2.8 ESE 17 28 9 15 1018.2 1016.1 0.0
25/10:30am 22.9 23.0 19.1 79 2.5 ESE 17 28 9 15 1018.3 1016.2 0.0
25/10:00am 22.2 21.5 18.6 80 2.3 ESE 20 30 11 16 1018.8 1016.6 0.0
25/09:30am 21.4 21.6 18.6 84 1.8 SE 15 20 8 11 1018.6 1016.5 0.0
25/09:00am 21.1 21.0 18.7 86 1.5 SE 17 20 9 11 1018.5 1016.4 0.6
25/08:30am 21.0 21.4 19.1 89 1.2 SE 15 22 8 12 1018.4 1016.3 0.6
25/08:00am 20.2 21.4 19.0 93 0.8 SE 11 20 6 11 1018.1 1016.0 0.6
25/07:58am 20.2 21.3 18.9 92 0.8 SE 11 20 6 11 1018.0 1015.9 0.6
25/07:47am 19.9 20.5 18.7 93 0.8 SE 13 20 7 11 1017.9 1015.8 0.6
25/07:30am 20.0 21.1 18.8 93 0.8 SE 11 19 6 10 1017.7 1015.6 0.6
25/07:07am 19.6 19.9 18.8 95 0.5 SSE 15 20 8 11 1017.2 1015.1 0.6
25/07:00am 19.5 19.8 18.8 96 0.4 SSE 15 20 8 11 1017.2 1015.1 0.6
25/06:41am 19.2 19.3 18.4 95 0.5 SE 15 20 8 11 1017.1 1015.0 0.6
25/06:30am 19.3 20.2 18.5 95 0.5 SSE 11 15 6 8 1016.9 1014.8 0.6
25/06:19am 19.3 20.2 18.3 94 0.6 SE 11 17 6 9 1016.8 1014.7 0.6
25/06:04am 19.3 20.5 18.3 94 0.6 SE 9 13 5 7 1016.7 1014.5 0.6
25/06:00am 19.3 20.5 18.3 94 0.6 SE 9 13 5 7 1016.7 1014.5 0.6
25/05:30am 19.4 20.3 18.4 94 0.6 SE 11 15 6 8 1016.2 1014.1 0.6
25/05:00am 19.6 20.5 18.4 93 0.8 SE 11 17 6 9 1016.0 1013.9 0.6
25/04:30am 19.9 20.8 18.4 91 0.9 SE 11 17 6 9 1015.9 1013.8 0.6
25/04:00am 19.8 20.7 18.3 91 0.9 ESE 11 17 6 9 1015.9 1013.8 0.6
25/03:30am 19.9 20.8 18.4 91 0.9 ESE 11 17 6 9 1015.9 1013.8 0.6
25/03:00am 19.8 20.7 18.3 91 0.9 SE 11 19 6 10 1016.0 1013.9 0.6
25/02:30am 19.9 20.7 18.2 90 1.1 SE 11 17 6 9 1016.2 1014.1 0.6
25/02:00am 19.9 20.8 18.4 91 0.9 ESE 11 22 6 12 1016.7 1014.5 0.6
25/01:58am 20.0 20.6 18.5 91 1.0 ESE 13 22 7 12 1016.7 1014.5 0.6
25/01:52am 19.9 20.3 18.2 90 1.1 ESE 13 22 7 12 1016.8 1014.7 0.6
25/01:30am 20.1 20.2 18.4 90 1.1 SE 15 22 8 12 1016.9 1014.8 0.6
25/01:29am 20.1 20.2 18.4 90 1.1 SE 15 22 8 12 1017.0 1014.9 0.6
25/01:17am 20.3 20.1 18.4 89 1.2 ESE 17 28 9 15 1017.1 1015.0 0.6
25/01:00am 20.3 20.1 18.4 89 1.2 ESE 17 26 9 14 1017.2 1015.1 0.6
25/12:30am 20.5 20.2 19.2 92 0.8 SE 19 28 10 15 1017.6 1015.5 0.6
25/12:00am 21.1 21.3 19.4 90 1.1 ESE 17 32 9 17 1017.6 1015.5 0.6
 
Date/Time
EST
Temp
°C
App
Temp
°C
Dew
Point
°C
Rel
Hum
%
Delta-T
°C
Wind Press
QNH
hPa
Press
MSL
hPa
Rain since
9am
mm
Dir  Spd
km/h
Gust
km/h
Spd
kts
Gust
kts
24/11:53pm 21.2 22.2 19.5 90 1.1 ESE 13 20 7 11 1017.6 1015.5 0.6
24/11:30pm 21.3 22.5 19.8 91 1.0 ESE 13 20 7 11 1017.6 1015.5 0.6
24/11:00pm 21.3 22.4 19.6 90 1.1 ESE 13 17 7 9 1017.7 1015.6 0.6
24/10:30pm 20.9 22.2 19.2 90 1.1 ESE 11 15 6 8 1017.7 1015.6 0.6
24/10:00pm 21.1 22.4 19.4 90 1.1 ESE 11 17 6 9 1017.6 1015.5 0.6
24/09:30pm 21.3 23.3 19.2 88 1.4 E 7 11 4 6 1017.7 1015.6 0.6
24/09:00pm 21.6 22.5 19.3 87 1.5 ESE 13 17 7 9 1017.7 1015.6 0.6
24/08:30pm 21.5 23.1 19.2 87 1.5 ESE 9 13 5 7 1017.5 1015.4 0.6
24/08:00pm 22.0 23.8 19.5 86 1.6 E 9 13 5 7 1017.1 1015.0 0.6
24/07:30pm 22.4 24.1 20.1 87 1.5 E 11 17 6 9 1016.7 1014.5 0.6
24/07:00pm 22.9 23.5 20.2 85 1.8 E 17 26 9 14 1016.0 1013.9 0.6
24/06:30pm 23.3 25.3 20.8 86 1.7 E 11 17 6 9 1015.7 1013.6 0.6
24/06:00pm 22.8 25.1 20.7 88 1.4 E 9 11 5 6 1015.5 1013.4 0.6
24/05:30pm 22.9 23.8 20.1 84 1.8 ESE 15 26 8 14 1015.3 1013.2 0.2
24/05:00pm 26.5 27.6 19.6 66 4.5 E 13 17 7 9 1014.8 1012.7 0.0
24/04:30pm 27.2 28.1 19.3 62 5.2 ESE 13 19 7 10 1014.6 1012.4 0.0
24/04:00pm 27.5 28.8 19.3 61 5.4 ESE 11 17 6 9 1014.3 1012.1 0.0
24/03:30pm 27.6 29.2 19.1 59 5.6 E 9 13 5 7 1014.2 1012.0 0.0
24/03:00pm 27.5 29.2 20.1 64 4.9 ENE 11 15 6 8 1014.2 1012.0 0.0
24/02:30pm 27.6 28.0 19.1 59 5.6 E 15 22 8 12 1014.4 1012.2 0.0
24/02:00pm 28.7 30.5 18.8 55 6.5 ENE 7 17 4 9 1014.6 1012.4 0.0
24/01:30pm 28.0 29.3 18.4 56 6.2 SSE 9 11 5 6 1015.1 1013.0 0.0
24/01:00pm 27.7 29.0 18.4 57 6.0 ESE 9 13 5 7 1015.5 1013.4 0.0
24/12:30pm 28.5 31.2 18.6 55 6.5 ESE 2 13 1 7 1016.1 1014.0 0.0
24/12:00pm 27.3 29.2 18.9 60 5.5 SE 7 13 4 7 1016.7 1014.5 0.0
24/11:30am 26.7 28.4 19.3 64 4.9 E 9 15 5 8 1017.2 1015.1 0.0
24/11:00am 26.8 28.7 19.7 65 4.7 E 9 13 5 7 1017.7 1015.6 0.0
24/10:30am 26.0 27.8 19.6 68 4.2 E 9 13 5 7 1017.8 1015.7 0.0
24/10:19am 25.1 26.7 19.9 73 3.4 ESE 11 15 6 8 1017.9 1015.8 0.0
24/10:00am 25.5 28.3 21.6 79 2.6 E 9 15 5 8 1018.2 1016.1 0.0
24/09:35am 24.0 25.7 20.1 79 2.6 E 11 17 6 9 1018.2 1016.1 0.0
24/09:30am 23.9 25.8 20.6 82 2.2 E 11 17 6 9 1018.2 1016.1 0.0
24/09:00am 23.9 26.0 21.0 84 1.9 ESE 11 15 6 8 1018.3 1016.2 1.6
24/08:30am 23.6 25.6 20.7 84 1.9 E 11 15 6 8 1018.1 1016.0 1.6
24/08:00am 22.7 25.2 21.0 90 1.1 S 9 15 5 8 1017.9 1015.8 1.6
24/07:30am 21.3 24.2 20.6 96 0.5 S 6 7 3 4 1017.6 1015.5 1.6
24/07:00am 19.7 23.2 19.5 99 0.1 CALM 0 0 0 0 1017.2 1015.1 1.6
24/06:30am 18.4 21.3 18.1 98 0.2 CALM 0 0 0 0 1016.9 1014.8 1.6
24/06:08am 18.0 19.9 17.7 98 0.2 SE 4 7 2 4 1016.5 1014.3 1.6
24/06:00am 18.2 19.8 17.9 98 0.2 S 6 9 3 5 1016.6 1014.4 1.6
24/05:57am 18.2 19.6 17.9 98 0.2 S 7 11 4 6 1016.7 1014.5 1.6
24/05:36am 17.9 20.1 17.4 97 0.3 S 2 11 1 6 1016.6 1014.4 1.6
24/05:34am 17.8 20.3 17.3 97 0.3 CALM 0 0 0 0 1016.6 1014.4 1.6
24/05:30am 17.8 20.3 17.3 97 0.3 CALM 0 0 0 0 1016.5 1014.3 1.4
24/05:00am 17.9 20.4 17.3 96 0.4 CALM 0 2 0 1 1015.9 1013.8 1.4
24/04:30am 17.8 19.9 17.2 96 0.4 SE 2 6 1 3 1015.8 1013.7 1.4
24/04:00am 18.3 19.7 17.7 96 0.4 S 7 7 4 4 1015.8 1013.7 1.4
24/03:40am 18.3 20.9 17.5 95 0.5 CALM 0 0 0 0 1015.8 1013.7 1.4
24/03:30am 18.1 20.6 17.3 95 0.5 CALM 0 0 0 0 1015.8 1013.7 1.4
24/03:19am 18.2 20.8 17.4 95 0.5 CALM 0 0 0 0 1015.7 1013.6 1.4
24/03:00am 18.4 21.0 17.4 94 0.6 CALM 0 0 0 0 1015.8 1013.7 1.4
24/02:30am 18.8 21.1 17.8 94 0.6 ESE 2 6 1 3 1016.2 1014.1 1.4
24/02:00am 19.2 21.0 18.2 94 0.6 SSE 6 7 3 4 1016.7 1014.5 1.4
24/01:30am 19.3 21.7 18.0 92 0.8 SE 2 7 1 4 1016.9 1014.8 1.4
24/01:00am 20.1 23.3 18.9 93 0.8 CALM 0 0 0 0 1017.1 1015.0 1.4
24/12:30am 20.6 24.0 19.4 93 0.8 CALM 0 0 0 0 1017.3 1015.2 1.4
24/12:00am 20.9 24.4 19.6 92 0.8 CALM 0 0 0 0 1017.5 1015.4 1.4
 
Date/Time
EST
Temp
°C
App
Temp
°C
Dew
Point
°C
Rel
Hum
%
Delta-T
°C
Wind Press
QNH
hPa
Press
MSL
hPa
Rain since
9am
mm
Dir  Spd
km/h
Gust
km/h
Spd
kts
Gust
kts
23/11:30pm 21.0 24.6 19.7 92 0.8 CALM 0 0 0 0 1017.7 1015.6 1.4
23/11:00pm 21.0 23.2 19.7 92 0.8 E 7 9 4 5 1017.8 1015.7 1.4
23/10:30pm 21.1 23.3 19.7 92 0.9 E 7 9 4 5 1018.1 1016.0 1.4
23/10:00pm 21.3 25.1 20.1 93 0.8 CALM 0 0 0 0 1018.2 1016.1 1.4
23/09:30pm 21.3 23.9 20.1 93 0.8 SSE 6 9 3 5 1018.4 1016.3 1.4
23/09:00pm 21.3 23.4 20.1 93 0.8 S 9 13 5 7 1018.4 1016.3 1.4
23/08:37pm 21.5 23.9 20.0 91 1.0 ESE 7 9 4 5 1018.0 1015.9 1.4
23/08:30pm 21.5 23.9 20.0 91 1.0 ESE 7 9 4 5 1018.1 1016.0 1.4
23/08:14pm 21.7 23.8 20.2 91 1.0 E 9 9 5 5 1018.0 1015.9 1.4
23/08:00pm 21.9 24.3 20.0 89 1.2 E 7 9 4 5 1017.6 1015.5 1.4
23/07:30pm 21.9 24.4 20.2 90 1.1 ESE 7 11 4 6 1017.2 1015.1 1.4
23/07:00pm 22.0 25.7 19.9 88 1.4 CALM 0 0 0 0 1017.1 1015.0 1.4
23/06:30pm 21.8 24.5 19.5 87 1.5 E 4 7 2 4 1016.9 1014.8 1.4
23/06:00pm 21.9 23.5 19.1 84 1.8 E 9 13 5 7 1016.6 1014.4 1.4
23/05:30pm 22.4 24.1 18.6 79 2.4 ENE 7 11 4 6 1016.4 1014.2 1.4
23/05:00pm 22.5 24.4 18.9 80 2.3 NE 7 13 4 7 1016.2 1014.1 1.4
23/04:30pm 22.3 22.7 18.9 81 2.2 NNE 15 22 8 12 1016.0 1013.9 1.4
23/04:00pm 24.9 27.2 20.6 77 2.9 E 9 15 5 8 1015.7 1013.6 1.2
23/03:30pm 25.1 27.7 21.2 79 2.6 E 9 11 5 6 1015.6 1013.5 1.2
23/03:00pm 24.4 26.7 20.7 80 2.5 E 9 13 5 7 1015.7 1013.6 1.2
23/02:30pm 23.8 26.8 21.3 86 1.7 E 7 11 4 6 1015.9 1013.8 1.2
23/02:02pm 22.7 25.3 20.4 87 1.5 E 7 11 4 6 1016.5 1014.3 1.2
23/02:00pm 22.4 24.2 19.6 84 1.8 E 9 11 5 6 1016.5 1014.3 1.2
23/01:46pm 22.3 24.7 20.0 87 1.5 ENE 7 11 4 6 1016.7 1014.5 1.0
23/01:45pm 22.3 24.6 19.8 86 1.6 ENE 7 11 4 6 1016.7 1014.5 1.0
23/01:30pm 22.8 25.0 20.5 87 1.5 ENE 9 15 5 8 1016.8 1014.7 1.0

Latest Capital City Observations: Canberra | Sydney | Melbourne | Brisbane | Adelaide | Perth | Hobart | Darwin

Other Formats:

Comma delimited format used in spreadsheet applications
http://www.bom.gov.au/fwo/IDQ60901/IDQ60901.94549.axf

JavaScript Object Notation format (JSON) in row-major order
http://www.bom.gov.au/fwo/IDQ60901/IDQ60901.94549.json